createdAt,value
2022-08-18T00:00:12.996Z,56.20
2022-08-18T00:01:15.946Z,56.24
2022-08-18T00:02:18.513Z,56.31
2022-08-18T00:03:53.549Z,56.43
2022-08-18T00:04:35.477Z,56.47
2022-08-18T00:05:27.829Z,56.55
2022-08-18T00:06:31.870Z,56.63
2022-08-18T00:07:33.731Z,56.56
2022-08-18T00:08:38.530Z,56.45
2022-08-18T00:09:39.310Z,56.52
2022-08-18T00:10:41.566Z,56.59
2022-08-18T00:11:43.497Z,56.57
2022-08-18T00:12:45.421Z,56.41
2022-08-18T00:13:47.328Z,56.46
2022-08-18T00:14:49.214Z,56.50
2022-08-18T00:15:51.093Z,56.57
2022-08-18T00:16:53.151Z,56.60
2022-08-18T00:17:54.989Z,56.64
2022-08-18T00:18:56.859Z,56.66
2022-08-18T00:19:58.729Z,56.69
2022-08-18T00:21:00.846Z,56.63
2022-08-18T00:22:02.763Z,56.57
2022-08-18T00:23:04.747Z,56.55
2022-08-18T00:24:06.616Z,56.51
2022-08-18T00:25:08.489Z,56.55
2022-08-18T00:26:10.761Z,56.67
2022-08-18T00:27:12.724Z,56.70
2022-08-18T00:28:14.600Z,56.70
2022-08-18T00:29:16.492Z,56.70
2022-08-18T00:30:20.088Z,56.65
2022-08-18T00:31:21.954Z,56.61
2022-08-18T00:32:23.867Z,56.60
2022-08-18T00:33:25.760Z,56.61
2022-08-18T00:34:27.627Z,56.68
2022-08-18T00:35:31.337Z,56.79
2022-08-18T00:36:35.020Z,56.79
2022-08-18T00:37:36.949Z,56.80
2022-08-18T00:38:38.842Z,56.85
2022-08-18T00:39:46.406Z,56.83
2022-08-18T00:40:44.502Z,56.83
2022-08-18T00:41:46.424Z,56.85
2022-08-18T00:42:48.347Z,56.84
2022-08-18T00:43:50.224Z,56.84
2022-08-18T00:44:52.105Z,56.82
2022-08-18T00:45:54.489Z,56.79
2022-08-18T00:46:56.476Z,56.78
2022-08-18T00:47:58.730Z,56.79
2022-08-18T00:49:00.874Z,56.92
2022-08-18T00:50:02.760Z,56.99
2022-08-18T00:51:04.638Z,57.05
2022-08-18T00:52:06.534Z,57.03
2022-08-18T00:53:08.438Z,57.03
2022-08-18T00:54:10.301Z,57.02
2022-08-18T00:55:12.183Z,57.05
2022-08-18T00:56:14.377Z,57.12
2022-08-18T00:57:16.336Z,57.18
2022-08-18T00:58:18.264Z,57.20
2022-08-18T00:59:20.133Z,57.20
2022-08-18T01:00:22.217Z,57.24
2022-08-18T01:01:24.135Z,57.26
2022-08-18T01:02:25.981Z,57.32
2022-08-18T01:03:28.030Z,57.34
2022-08-18T01:04:29.897Z,57.34
2022-08-18T01:05:31.791Z,57.35
2022-08-18T01:06:35.196Z,57.29
2022-08-18T01:07:37.086Z,57.31
2022-08-18T01:08:39.081Z,57.30
2022-08-18T01:09:42.764Z,57.27
2022-08-18T01:10:46.481Z,57.24
2022-08-18T01:11:48.310Z,57.09
2022-08-18T01:12:50.165Z,57.03
2022-08-18T01:13:52.074Z,57.13
2022-08-18T01:14:53.892Z,57.23
2022-08-18T01:15:55.723Z,57.30
2022-08-18T01:16:58.086Z,57.36
2022-08-18T01:17:59.906Z,57.41
2022-08-18T01:19:01.798Z,57.39
2022-08-18T01:20:03.782Z,57.40
2022-08-18T01:21:05.734Z,57.43
2022-08-18T01:22:07.591Z,57.48
2022-08-18T01:23:09.430Z,57.46
2022-08-18T01:24:11.309Z,57.47
2022-08-18T01:25:13.164Z,57.42
2022-08-18T01:26:16.722Z,57.33
2022-08-18T01:27:18.825Z,57.30
2022-08-18T01:28:20.831Z,57.33
2022-08-18T01:29:22.727Z,57.34
2022-08-18T01:30:26.375Z,57.39
2022-08-18T01:31:28.202Z,57.52
2022-08-18T01:32:30.031Z,57.54
2022-08-18T01:33:31.867Z,57.51
2022-08-18T01:34:33.753Z,57.53
2022-08-18T01:35:41.630Z,57.52
2022-08-18T01:36:39.349Z,57.53
2022-08-18T01:37:41.188Z,57.54
2022-08-18T01:38:43.031Z,57.54
2022-08-18T01:41:21.186Z,57.59
2022-08-18T01:41:24.376Z,57.57
2022-08-18T01:41:52.394Z,57.57
2022-08-18T01:42:54.258Z,57.61
2022-08-18T01:43:56.128Z,57.59
2022-08-18T01:44:58.009Z,57.66
2022-08-18T01:45:59.836Z,57.79
2022-08-18T01:47:01.689Z,57.74
2022-08-18T01:48:03.891Z,57.64
2022-08-18T01:49:06.072Z,57.66
2022-08-18T01:50:08.457Z,57.69
2022-08-18T01:51:11.919Z,57.73
2022-08-18T01:52:13.761Z,57.71
2022-08-18T01:53:15.617Z,57.73
2022-08-18T01:54:17.501Z,57.78
2022-08-18T01:55:19.374Z,57.84
2022-08-18T01:56:21.822Z,57.85
2022-08-18T01:57:23.668Z,57.86
2022-08-18T01:58:28.807Z,57.86
2022-08-18T01:59:29.234Z,57.85
2022-08-18T02:00:31.218Z,57.86
2022-08-18T02:01:37.031Z,57.87
2022-08-18T02:02:36.712Z,57.81
2022-08-18T02:03:38.539Z,57.83
2022-08-18T02:04:40.376Z,57.92
2022-08-18T02:05:42.268Z,57.92
2022-08-18T02:06:46.521Z,57.88
2022-08-18T02:07:47.888Z,57.84
2022-08-18T02:08:53.578Z,57.73
2022-08-18T02:09:55.152Z,57.74
2022-08-18T02:10:57.333Z,57.83
2022-08-18T02:11:59.180Z,57.81
2022-08-18T02:13:01.019Z,57.87
2022-08-18T02:14:02.846Z,57.90
2022-08-18T02:15:06.591Z,57.92
2022-08-18T02:16:08.787Z,57.91
2022-08-18T02:18:12.929Z,57.95
2022-08-18T02:19:14.794Z,57.96
2022-08-18T02:20:16.995Z,57.88
2022-08-18T02:21:19.367Z,57.90
2022-08-18T02:22:21.321Z,57.92
2022-08-18T02:23:23.184Z,57.97
2022-08-18T02:24:25.046Z,57.98
2022-08-18T02:25:26.927Z,58.01
2022-08-18T02:26:28.977Z,58.04
2022-08-18T02:27:30.846Z,57.99
2022-08-18T02:28:34.550Z,57.99
2022-08-18T02:29:36.437Z,57.98
2022-08-18T02:30:38.483Z,58.01
2022-08-18T02:31:40.395Z,58.03
2022-08-18T02:32:42.276Z,58.01
2022-08-18T02:33:51.922Z,58.04
2022-08-18T02:34:47.857Z,58.10
2022-08-18T02:35:49.732Z,57.94
2022-08-18T02:36:51.757Z,57.96
2022-08-18T02:37:54.636Z,58.00
2022-08-18T02:38:59.893Z,58.05
2022-08-18T02:40:00.406Z,58.15
2022-08-18T02:41:02.310Z,58.16
2022-08-18T02:42:04.219Z,58.25
2022-08-18T02:43:06.089Z,58.30
2022-08-18T02:44:07.961Z,58.30
2022-08-18T02:45:09.827Z,58.29
2022-08-18T02:46:12.843Z,58.25
2022-08-18T02:47:14.776Z,58.18
2022-08-18T02:48:17.059Z,58.17
2022-08-18T02:49:18.931Z,58.21
2022-08-18T02:50:22.332Z,58.21
2022-08-18T02:51:26.043Z,58.25
2022-08-18T02:52:27.976Z,58.27
2022-08-18T02:53:29.828Z,58.34
2022-08-18T02:54:31.721Z,58.37
2022-08-18T02:55:33.595Z,58.42
2022-08-18T02:56:41.133Z,58.47
2022-08-18T02:57:39.322Z,58.46
2022-08-18T02:58:41.200Z,58.44
2022-08-18T02:59:43.090Z,58.33
2022-08-18T03:00:46.884Z,58.21
2022-08-18T03:01:48.890Z,58.20
2022-08-18T03:02:50.902Z,58.25
2022-08-18T03:03:52.782Z,58.26
2022-08-18T03:04:54.687Z,58.30
2022-08-18T03:05:56.549Z,58.36
2022-08-18T03:06:58.553Z,58.42
2022-08-18T03:08:00.982Z,58.42
2022-08-18T03:09:02.863Z,58.56
2022-08-18T03:10:31.939Z,58.76
2022-08-18T03:11:08.535Z,58.92
2022-08-18T03:12:10.419Z,59.02
2022-08-18T03:13:12.330Z,59.05
2022-08-18T03:14:14.211Z,59.13
2022-08-18T03:15:16.076Z,59.15
2022-08-18T03:16:18.572Z,59.22
2022-08-18T03:17:20.668Z,59.28
2022-08-18T03:18:22.879Z,59.31
2022-08-18T03:19:24.775Z,59.33
2022-08-18T03:20:31.078Z,59.41
2022-08-18T03:21:31.856Z,59.45
2022-08-18T03:22:33.828Z,59.52
2022-08-18T03:23:36.157Z,59.53
2022-08-18T03:24:38.025Z,59.60
2022-08-18T03:25:39.884Z,59.69
2022-08-18T03:26:41.882Z,59.79
2022-08-18T03:27:43.848Z,59.81
2022-08-18T03:28:45.789Z,59.82
2022-08-18T03:29:47.681Z,59.61
2022-08-18T03:30:49.656Z,59.54
2022-08-18T03:31:51.547Z,59.39
2022-08-18T03:32:53.464Z,59.26
2022-08-18T03:33:55.362Z,59.41
2022-08-18T03:34:59.051Z,59.63
2022-08-18T03:36:00.928Z,59.79
2022-08-18T03:37:02.812Z,59.90
2022-08-18T03:38:04.692Z,59.98
2022-08-18T03:39:06.610Z,60.02
2022-08-18T03:40:08.909Z,60.02
2022-08-18T03:41:11.040Z,59.97
2022-08-18T03:42:13.528Z,59.98
2022-08-18T03:43:38.893Z,60.02
2022-08-18T03:44:19.253Z,60.01
2022-08-18T03:45:21.110Z,60.06
2022-08-18T03:46:23.701Z,60.11
2022-08-18T03:47:25.597Z,60.09
2022-08-18T03:48:27.497Z,60.13
2022-08-18T03:49:29.408Z,60.12
2022-08-18T03:50:33.098Z,60.02
2022-08-18T03:51:34.998Z,60.00
2022-08-18T03:52:36.865Z,59.97
2022-08-18T03:53:40.542Z,59.91
2022-08-18T03:54:42.476Z,59.90
2022-08-18T03:55:44.350Z,59.91
2022-08-18T03:56:46.327Z,59.92
2022-08-18T03:57:48.195Z,59.91
2022-08-18T03:58:50.093Z,59.94
2022-08-18T03:59:52.027Z,59.90
2022-08-18T04:00:54.261Z,59.93
2022-08-18T04:01:56.317Z,59.96
2022-08-18T04:02:58.196Z,59.99
2022-08-18T04:04:00.102Z,60.04
2022-08-18T04:05:02.016Z,60.08
2022-08-18T04:06:08.676Z,60.12
2022-08-18T04:07:09.603Z,60.19
2022-08-18T04:08:11.491Z,60.24
2022-08-18T04:09:13.366Z,60.30
2022-08-18T04:10:19.487Z,60.31
2022-08-18T04:11:19.492Z,60.25
2022-08-18T04:12:21.362Z,60.20
2022-08-18T04:13:23.250Z,60.15
2022-08-18T04:14:25.133Z,60.10
2022-08-18T04:15:27.061Z,60.15
2022-08-18T04:16:29.050Z,60.20
2022-08-18T04:17:30.929Z,60.15
2022-08-18T04:18:32.807Z,60.35
2022-08-18T04:19:34.736Z,60.39
2022-08-18T04:20:37.774Z,60.23
2022-08-18T04:21:41.462Z,60.11
2022-08-18T04:22:43.956Z,60.08
2022-08-18T04:23:45.928Z,60.19
2022-08-18T04:24:47.820Z,60.16
2022-08-18T04:25:52.137Z,60.00
2022-08-18T04:26:54.334Z,59.89
2022-08-18T04:27:56.206Z,59.83
2022-08-18T04:28:58.100Z,59.78
2022-08-18T04:29:59.938Z,59.75
2022-08-18T04:31:01.818Z,59.77
2022-08-18T04:32:05.471Z,59.70
2022-08-18T04:33:07.304Z,59.62
2022-08-18T04:34:09.150Z,59.54
2022-08-18T04:35:14.045Z,59.50
2022-08-18T04:36:18.757Z,59.43
2022-08-18T04:37:18.662Z,59.47
2022-08-18T04:38:20.503Z,59.44
2022-08-18T04:39:22.335Z,59.40
2022-08-18T04:40:25.431Z,59.41
2022-08-18T04:41:27.947Z,59.38
2022-08-18T04:42:29.778Z,59.28
2022-08-18T04:43:31.928Z,59.31
2022-08-18T04:44:33.761Z,59.30
2022-08-18T04:45:35.601Z,59.26
2022-08-18T04:46:38.897Z,59.26
2022-08-18T04:47:40.727Z,59.30
2022-08-18T04:48:43.597Z,59.38
2022-08-18T04:49:45.432Z,59.35
2022-08-18T04:50:47.295Z,59.29
2022-08-18T04:52:36.635Z,59.32
2022-08-18T04:52:52.854Z,59.27
2022-08-18T04:53:54.694Z,59.31
2022-08-18T04:54:56.538Z,59.28
2022-08-18T04:55:58.425Z,59.25
2022-08-18T04:57:01.028Z,59.28
2022-08-18T04:58:02.876Z,59.27
2022-08-18T04:59:04.720Z,59.33
2022-08-18T05:00:08.084Z,59.33
2022-08-18T05:01:10.035Z,59.42
2022-08-18T05:02:14.783Z,59.43
2022-08-18T05:03:15.780Z,59.42
2022-08-18T05:04:17.647Z,59.49
2022-08-18T05:05:19.480Z,59.55
2022-08-18T05:06:21.924Z,59.56
2022-08-18T05:07:23.830Z,59.54
2022-08-18T05:08:25.674Z,59.51
2022-08-18T05:09:28.559Z,59.40
2022-08-18T05:10:32.111Z,59.39
2022-08-18T05:11:33.956Z,59.45
2022-08-18T05:12:35.841Z,59.49
2022-08-18T05:13:37.686Z,59.47
2022-08-18T05:14:40.946Z,59.52
2022-08-18T05:16:09.037Z,59.55
2022-08-18T05:16:48.727Z,59.56
2022-08-18T05:17:51.035Z,59.56
2022-08-18T05:18:53.016Z,59.60
2022-08-18T05:19:54.852Z,59.60
2022-08-18T05:20:57.398Z,59.61
2022-08-18T05:22:03.032Z,59.60
2022-08-18T05:23:04.825Z,59.63
2022-08-18T05:24:06.669Z,59.64
2022-08-18T05:25:08.513Z,59.66
2022-08-18T05:26:10.961Z,59.66
2022-08-18T05:27:12.794Z,59.63
2022-08-18T05:28:14.700Z,59.61
2022-08-18T05:29:19.036Z,59.60
2022-08-18T05:30:22.688Z,59.59
2022-08-18T05:31:24.542Z,59.59
2022-08-18T05:32:30.461Z,59.63
2022-08-18T05:33:30.074Z,59.70
2022-08-18T05:34:32.110Z,59.71
2022-08-18T05:35:33.960Z,59.65
2022-08-18T05:36:37.121Z,59.44
2022-08-18T05:37:39.055Z,59.44
2022-08-18T05:38:40.942Z,59.57
2022-08-18T05:39:42.865Z,59.63
2022-08-18T05:40:44.825Z,59.63
2022-08-18T05:41:46.660Z,59.53
2022-08-18T05:42:48.554Z,59.47
2022-08-18T05:43:51.756Z,59.36
2022-08-18T05:44:54.101Z,59.42
2022-08-18T05:45:55.949Z,59.39
2022-08-18T05:46:57.887Z,59.34
2022-08-18T05:47:59.733Z,59.32
2022-08-18T05:49:01.623Z,59.33
2022-08-18T05:50:03.578Z,59.29
2022-08-18T05:51:05.407Z,59.23
2022-08-18T05:52:07.247Z,59.18
2022-08-18T05:53:13.183Z,59.18
2022-08-18T05:54:12.949Z,59.55
2022-08-18T05:55:14.787Z,59.43
2022-08-18T05:56:17.157Z,59.34
2022-08-18T05:57:18.994Z,59.33
2022-08-18T05:58:20.838Z,59.38
2022-08-18T05:59:22.728Z,59.42
2022-08-18T06:00:25.384Z,59.40
2022-08-18T06:01:27.523Z,59.43
2022-08-18T06:02:29.398Z,59.38
2022-08-18T06:03:31.372Z,59.39
2022-08-18T06:04:34.921Z,59.75
2022-08-18T06:05:36.752Z,59.75
2022-08-18T06:06:38.693Z,59.89
2022-08-18T06:07:40.539Z,59.90
2022-08-18T06:08:42.570Z,59.83
2022-08-18T06:09:44.457Z,59.76
2022-08-18T06:10:46.408Z,59.89
2022-08-18T06:11:48.245Z,59.88
2022-08-18T06:12:50.084Z,59.90
2022-08-18T06:13:52.387Z,59.79
2022-08-18T06:14:55.652Z,59.74
2022-08-18T06:15:57.495Z,59.71
2022-08-18T06:17:05.489Z,59.67
2022-08-18T06:18:07.400Z,59.64
2022-08-18T06:19:09.247Z,59.63
2022-08-18T06:20:11.912Z,59.62
2022-08-18T06:21:13.899Z,59.78
2022-08-18T06:22:15.747Z,59.87
2022-08-18T06:23:17.983Z,59.91
2022-08-18T06:24:20.172Z,59.90
2022-08-18T06:25:22.049Z,59.83
2022-08-18T06:26:25.609Z,59.73
2022-08-18T06:27:27.442Z,59.66
2022-08-18T06:28:29.289Z,59.57
2022-08-18T06:29:31.143Z,59.64
2022-08-18T06:30:34.026Z,59.64
2022-08-18T06:31:35.778Z,59.66
2022-08-18T06:32:37.623Z,59.67
2022-08-18T06:33:39.467Z,59.64
2022-08-18T06:34:41.292Z,59.70
2022-08-18T06:35:43.173Z,59.79
2022-08-18T06:36:45.125Z,59.83
2022-08-18T06:37:46.966Z,59.85
2022-08-18T06:38:48.805Z,59.67
2022-08-18T06:39:50.766Z,59.61
2022-08-18T06:40:52.770Z,59.60
2022-08-18T06:41:54.613Z,59.62
2022-08-18T06:42:56.647Z,59.58
2022-08-18T06:44:00.453Z,59.60
2022-08-18T06:45:02.339Z,59.76
2022-08-18T06:46:04.575Z,59.77
2022-08-18T06:47:06.668Z,59.75
2022-08-18T06:48:15.711Z,59.72
2022-08-18T06:49:12.221Z,59.90
2022-08-18T06:50:14.924Z,59.85
2022-08-18T06:51:16.846Z,59.85
2022-08-18T06:52:18.721Z,59.84
2022-08-18T06:53:28.063Z,59.83
2022-08-18T06:54:24.293Z,59.98
2022-08-18T06:55:26.283Z,59.89
2022-08-18T06:56:30.015Z,59.86
2022-08-18T06:57:31.888Z,59.90
2022-08-18T06:58:33.784Z,59.88
2022-08-18T06:59:35.653Z,59.83
2022-08-18T07:00:37.715Z,59.74
2022-08-18T07:01:39.755Z,59.65
2022-08-18T07:02:41.655Z,59.64
2022-08-18T07:03:43.537Z,59.64
2022-08-18T07:04:45.476Z,59.61
2022-08-18T07:05:49.165Z,59.55
2022-08-18T07:06:51.186Z,59.44
2022-08-18T07:07:53.509Z,59.34
2022-08-18T07:08:55.585Z,59.34
2022-08-18T07:09:57.572Z,59.30
2022-08-18T07:10:59.639Z,59.44
2022-08-18T07:12:01.567Z,59.57
2022-08-18T07:13:03.460Z,59.69
2022-08-18T07:14:15.953Z,59.81
2022-08-18T07:15:09.023Z,59.65
2022-08-18T07:16:11.410Z,59.44
2022-08-18T07:17:15.354Z,59.31
2022-08-18T07:18:17.239Z,59.38
2022-08-18T07:19:19.108Z,59.48
2022-08-18T07:20:22.287Z,59.52
2022-08-18T07:21:24.265Z,59.42
2022-08-18T07:22:38.849Z,59.13
2022-08-18T07:23:29.848Z,59.26
2022-08-18T07:24:31.727Z,59.24
2022-08-18T07:25:33.581Z,59.53
2022-08-18T07:26:37.048Z,59.51
2022-08-18T07:27:38.939Z,59.38
2022-08-18T07:28:40.820Z,59.62
2022-08-18T07:29:42.698Z,59.42
2022-08-18T07:31:06.470Z,59.52
2022-08-18T07:31:50.162Z,59.53
2022-08-18T07:32:52.059Z,59.71
2022-08-18T07:33:53.929Z,59.49
2022-08-18T07:34:55.782Z,58.89
2022-08-18T07:35:57.641Z,58.37
2022-08-18T07:36:59.874Z,58.21
2022-08-18T07:38:13.778Z,58.50
2022-08-18T07:39:05.497Z,58.69
2022-08-18T07:40:08.330Z,58.49
2022-08-18T07:41:10.178Z,58.57
2022-08-18T07:42:12.102Z,58.76
2022-08-18T07:43:15.916Z,58.53
2022-08-18T07:44:17.999Z,58.47
2022-08-18T07:45:19.878Z,58.58
2022-08-18T07:46:23.932Z,58.73
2022-08-18T07:47:25.775Z,58.95
2022-08-18T07:48:38.301Z,58.87
2022-08-18T07:49:31.343Z,58.50
2022-08-18T07:50:58.578Z,58.35
2022-08-18T07:51:37.809Z,57.72
2022-08-18T07:52:46.899Z,57.17
2022-08-18T07:53:43.385Z,56.85
2022-08-18T07:54:49.837Z,56.37
2022-08-18T07:55:50.811Z,55.92
2022-08-18T07:56:52.870Z,55.91
2022-08-18T07:57:54.911Z,55.91
2022-08-18T07:58:56.965Z,55.89
2022-08-18T07:59:58.836Z,55.91
2022-08-18T08:01:00.890Z,55.78
2022-08-18T08:02:02.892Z,55.20
2022-08-18T08:03:06.130Z,54.86
2022-08-18T08:04:08.037Z,54.72
2022-08-18T08:05:11.332Z,54.65
2022-08-18T08:06:15.021Z,54.59
2022-08-18T08:07:25.406Z,54.53
2022-08-18T08:08:25.053Z,54.35
2022-08-18T08:09:24.359Z,54.34
2022-08-18T08:10:26.752Z,54.49
2022-08-18T08:11:28.622Z,54.59
2022-08-18T08:12:30.657Z,54.64
2022-08-18T08:13:54.056Z,54.26
2022-08-18T08:14:36.369Z,53.92
2022-08-18T08:15:38.237Z,53.71
2022-08-18T08:16:40.457Z,53.79
2022-08-18T08:17:42.312Z,53.80
2022-08-18T08:18:44.182Z,53.85
2022-08-18T08:20:02.175Z,53.95
2022-08-18T08:20:49.997Z,53.97
2022-08-18T08:21:52.791Z,53.86
2022-08-18T08:22:55.149Z,53.94
2022-08-18T08:23:57.037Z,54.13
2022-08-18T08:24:58.933Z,54.23
2022-08-18T08:26:00.798Z,54.50
2022-08-18T08:27:02.681Z,54.15
2022-08-18T08:28:04.554Z,54.00
2022-08-18T08:29:06.494Z,53.96
2022-08-18T08:30:09.141Z,53.96
2022-08-18T08:31:35.526Z,53.63
2022-08-18T08:32:14.715Z,53.25
2022-08-18T08:33:16.572Z,53.53
2022-08-18T08:34:18.433Z,53.74
2022-08-18T08:35:48.673Z,53.90
2022-08-18T08:36:25.597Z,53.72
2022-08-18T08:37:27.455Z,53.60
2022-08-18T08:38:42.240Z,53.65
2022-08-18T08:39:33.038Z,53.79
2022-08-18T08:40:36.128Z,53.85
2022-08-18T08:41:39.211Z,54.04
2022-08-18T08:42:41.085Z,54.56
2022-08-18T08:43:42.942Z,54.78
2022-08-18T08:44:58.382Z,54.72
2022-08-18T08:45:48.663Z,54.70
2022-08-18T08:46:50.834Z,54.82
2022-08-18T08:47:52.901Z,54.76
2022-08-18T08:48:54.996Z,54.59
2022-08-18T08:50:00.749Z,54.52
2022-08-18T08:51:00.687Z,54.59
2022-08-18T08:52:02.552Z,54.41
2022-08-18T08:53:04.414Z,54.25
2022-08-18T08:54:06.285Z,54.16
2022-08-18T08:55:08.134Z,54.14
2022-08-18T08:56:10.726Z,54.16
2022-08-18T08:57:12.571Z,54.06
2022-08-18T08:58:14.448Z,54.04
2022-08-18T08:59:16.303Z,54.09
2022-08-18T09:00:19.037Z,54.19
2022-08-18T09:01:20.946Z,54.58
2022-08-18T09:02:44.687Z,54.50
2022-08-18T09:03:29.943Z,54.42
2022-08-18T09:04:30.084Z,54.76
2022-08-18T09:05:31.921Z,54.89
2022-08-18T09:06:34.199Z,54.94
2022-08-18T09:07:38.361Z,54.90
2022-08-18T09:08:39.698Z,54.70
2022-08-18T09:09:41.522Z,54.60
2022-08-18T09:10:43.484Z,54.53
2022-08-18T09:11:45.360Z,54.58
2022-08-18T09:12:47.210Z,54.39
2022-08-18T09:13:49.061Z,54.08
2022-08-18T09:14:50.916Z,54.10
2022-08-18T09:15:52.775Z,54.18
2022-08-18T09:16:54.764Z,54.15
2022-08-18T09:17:56.622Z,54.18
2022-08-18T09:18:58.469Z,54.29
2022-08-18T09:20:00.306Z,54.48
2022-08-18T09:21:02.144Z,54.47
2022-08-18T09:22:04.031Z,54.24
2022-08-18T09:23:06.217Z,54.10
2022-08-18T09:24:08.047Z,54.15
2022-08-18T09:25:09.894Z,54.17
2022-08-18T09:26:12.337Z,54.19
2022-08-18T09:27:14.265Z,54.06
2022-08-18T09:28:16.100Z,53.86
2022-08-18T09:29:17.942Z,53.69
2022-08-18T09:30:20.948Z,53.76
2022-08-18T09:31:22.813Z,53.66
2022-08-18T09:32:24.692Z,53.38
2022-08-18T09:33:26.517Z,53.35
2022-08-18T09:34:29.912Z,53.09
2022-08-18T09:35:31.753Z,53.03
2022-08-18T09:36:34.201Z,53.05
2022-08-18T09:37:36.083Z,53.05
2022-08-18T09:38:39.755Z,52.98
2022-08-18T09:39:43.168Z,52.88
2022-08-18T09:41:02.323Z,52.83
2022-08-18T09:41:49.245Z,52.85
2022-08-18T09:42:52.214Z,52.81
2022-08-18T09:43:54.040Z,52.72
2022-08-18T09:44:55.871Z,52.79
2022-08-18T09:45:57.734Z,52.90
2022-08-18T09:47:00.075Z,52.95
2022-08-18T09:48:01.926Z,53.02
2022-08-18T09:49:03.969Z,53.11
2022-08-18T09:50:16.613Z,53.23
2022-08-18T09:51:12.009Z,53.23
2022-08-18T09:52:15.370Z,53.27
2022-08-18T09:53:18.662Z,53.29
2022-08-18T09:54:21.803Z,53.32
2022-08-18T09:55:25.243Z,53.19
2022-08-18T09:56:28.613Z,53.08
2022-08-18T09:57:30.662Z,52.63
2022-08-18T09:58:34.352Z,52.35
2022-08-18T09:59:36.188Z,52.28
2022-08-18T10:00:39.584Z,52.36
2022-08-18T10:01:41.473Z,52.56
2022-08-18T10:02:48.536Z,52.72
2022-08-18T10:03:47.157Z,52.82
2022-08-18T10:04:48.999Z,52.78
2022-08-18T10:05:50.839Z,52.88
2022-08-18T10:06:53.095Z,52.87
2022-08-18T10:07:54.921Z,52.88
2022-08-18T10:08:56.812Z,52.77
2022-08-18T10:09:58.661Z,52.74
2022-08-18T10:11:09.116Z,52.50
2022-08-18T10:12:05.958Z,52.35
2022-08-18T10:13:09.618Z,52.45
2022-08-18T10:14:12.624Z,52.70
2022-08-18T10:15:14.540Z,52.94
2022-08-18T10:16:19.013Z,53.09
2022-08-18T10:17:23.693Z,53.05
2022-08-18T10:18:24.573Z,53.47
2022-08-18T10:19:39.519Z,53.20
2022-08-18T10:20:31.313Z,52.85
2022-08-18T10:21:33.589Z,52.73
2022-08-18T10:22:35.567Z,52.61
2022-08-18T10:23:38.442Z,52.75
2022-08-18T10:24:41.768Z,53.02
2022-08-18T10:25:44.718Z,53.03
2022-08-18T10:26:53.995Z,53.17
2022-08-18T10:27:50.657Z,52.40
2022-08-18T10:28:52.503Z,51.47
2022-08-18T10:29:54.382Z,51.13
2022-08-18T10:31:06.416Z,50.69
2022-08-18T10:32:00.011Z,50.38
2022-08-18T10:33:10.776Z,50.86
2022-08-18T10:35:09.255Z,50.85
2022-08-18T10:36:12.912Z,50.63
2022-08-18T10:37:16.927Z,50.89
2022-08-18T10:38:19.628Z,50.44
2022-08-18T10:39:22.579Z,50.32
2022-08-18T10:40:26.609Z,50.52
2022-08-18T10:41:30.868Z,50.15
2022-08-18T10:42:32.054Z,50.15
2022-08-18T10:44:37.537Z,49.74
2022-08-18T10:45:41.227Z,50.61
2022-08-18T10:46:46.765Z,50.20
2022-08-18T10:47:49.026Z,50.50
2022-08-18T10:48:51.403Z,50.76
2022-08-18T10:49:53.741Z,50.27
2022-08-18T10:50:55.714Z,49.71
2022-08-18T10:52:00.342Z,49.45
2022-08-18T10:53:23.912Z,49.35
2022-08-18T10:54:04.847Z,49.58
2022-08-18T10:55:06.682Z,49.24
2022-08-18T10:56:12.160Z,49.70
2022-08-18T10:57:14.109Z,49.77
2022-08-18T10:58:17.075Z,49.69
2022-08-18T10:59:18.935Z,50.03
2022-08-18T11:00:22.301Z,50.13
2022-08-18T11:01:24.172Z,49.69
2022-08-18T11:02:26.018Z,49.65
2022-08-18T11:03:50.064Z,49.73
2022-08-18T11:04:36.944Z,50.05
2022-08-18T11:05:37.211Z,49.63
2022-08-18T11:06:39.168Z,49.61
2022-08-18T11:07:41.012Z,49.64
2022-08-18T11:08:44.678Z,49.43
2022-08-18T11:09:57.228Z,49.31
2022-08-18T11:11:58.361Z,49.42
2022-08-18T11:12:59.687Z,49.44
2022-08-18T11:14:01.747Z,49.39
2022-08-18T11:15:22.738Z,49.32
2022-08-18T11:16:10.370Z,49.11
2022-08-18T11:17:12.298Z,49.08
2022-08-18T11:18:14.152Z,49.06
2022-08-18T11:19:16.905Z,49.04
2022-08-18T11:20:19.393Z,48.98
2022-08-18T11:21:21.328Z,48.95
2022-08-18T11:22:32.477Z,48.84
2022-08-18T11:23:26.904Z,48.91
2022-08-18T11:24:29.796Z,49.03
2022-08-18T11:25:31.663Z,48.89
2022-08-18T11:26:33.853Z,48.73
2022-08-18T11:27:36.340Z,48.75
2022-08-18T11:28:44.749Z,48.96
2022-08-18T11:29:41.912Z,49.06
2022-08-18T11:30:43.873Z,49.13
2022-08-18T11:31:45.732Z,49.13
2022-08-18T11:32:52.142Z,48.80
2022-08-18T11:33:53.156Z,48.98
2022-08-18T11:34:55.005Z,48.89
2022-08-18T11:35:56.890Z,48.98
2022-08-18T11:36:59.237Z,48.67
2022-08-18T11:38:01.135Z,49.01
2022-08-18T11:39:03.205Z,49.12
2022-08-18T11:40:07.116Z,49.17
2022-08-18T11:41:12.618Z,48.56
2022-08-18T11:42:15.679Z,48.45
2022-08-18T11:43:21.370Z,48.36
2022-08-18T11:44:22.416Z,48.59
2022-08-18T11:45:25.022Z,48.84
2022-08-18T11:46:30.532Z,48.79
2022-08-18T11:47:31.363Z,49.12
2022-08-18T11:48:37.621Z,49.11
2022-08-18T11:49:37.035Z,49.17
2022-08-18T11:50:39.018Z,48.94
2022-08-18T11:51:42.682Z,49.10
2022-08-18T11:52:44.634Z,49.06
2022-08-18T11:53:49.206Z,49.05
2022-08-18T11:54:54.356Z,49.22
2022-08-18T11:55:54.847Z,49.45
2022-08-18T11:56:57.318Z,49.61
2022-08-18T11:58:00.577Z,49.71
2022-08-18T11:59:04.161Z,49.30
2022-08-18T12:00:06.534Z,49.34
2022-08-18T12:01:08.389Z,49.55
2022-08-18T12:02:10.269Z,49.47
2022-08-18T12:03:13.960Z,49.57
2022-08-18T12:04:17.444Z,49.74
2022-08-18T12:05:19.260Z,50.07
2022-08-18T12:06:26.620Z,50.22
2022-08-18T12:07:26.044Z,50.26
2022-08-18T12:08:56.457Z,50.20
2022-08-18T12:10:07.865Z,50.27
2022-08-18T12:10:35.959Z,50.18
2022-08-18T12:11:41.314Z,50.38
2022-08-18T12:12:41.505Z,50.35
2022-08-18T12:13:43.381Z,50.37
2022-08-18T12:14:47.103Z,49.74
2022-08-18T12:15:49.987Z,49.92
2022-08-18T12:16:54.103Z,49.84
2022-08-18T12:17:55.875Z,49.95
2022-08-18T12:18:57.750Z,50.19
2022-08-18T12:19:59.658Z,50.15
2022-08-18T12:21:03.031Z,50.04
2022-08-18T12:22:11.585Z,50.06
2022-08-18T12:23:08.996Z,50.13
2022-08-18T12:24:10.916Z,49.79
2022-08-18T12:25:13.235Z,49.65
2022-08-18T12:27:21.381Z,50.09
2022-08-18T12:28:28.256Z,50.14
2022-08-18T12:29:31.025Z,50.06
2022-08-18T12:30:32.033Z,49.95
2022-08-18T12:31:42.347Z,50.02
2022-08-18T12:32:49.796Z,50.10
2022-08-18T12:33:47.786Z,50.20
2022-08-18T12:34:45.204Z,50.24
2022-08-18T12:35:48.624Z,50.68
2022-08-18T12:36:51.138Z,51.18
2022-08-18T12:38:05.061Z,51.57
2022-08-18T12:38:56.774Z,51.87
2022-08-18T12:39:58.752Z,52.25
2022-08-18T12:41:01.653Z,52.44
2022-08-18T12:42:04.930Z,52.13
2022-08-18T12:43:07.931Z,52.32
2022-08-18T12:44:10.078Z,52.65
2022-08-18T12:45:13.495Z,52.56
2022-08-18T12:46:16.305Z,52.31
2022-08-18T12:47:18.181Z,52.07
2022-08-18T12:48:22.220Z,51.76
2022-08-18T12:49:24.439Z,51.27
2022-08-18T12:51:30.929Z,51.04
2022-08-18T12:52:33.418Z,51.14
2022-08-18T12:53:58.131Z,50.95
2022-08-18T12:54:41.225Z,50.77
2022-08-18T12:55:44.010Z,50.64
2022-08-18T12:56:46.792Z,50.67
2022-08-18T12:57:52.446Z,50.51
2022-08-18T12:58:52.374Z,50.47
2022-08-18T12:59:54.348Z,50.53
2022-08-18T13:00:56.926Z,50.30
2022-08-18T13:01:59.238Z,50.28
2022-08-18T13:03:01.837Z,50.33
2022-08-18T13:04:12.124Z,50.35
2022-08-18T13:05:07.400Z,50.16
2022-08-18T13:06:09.958Z,50.11
2022-08-18T13:07:11.862Z,50.02
2022-08-18T13:08:14.077Z,50.06
2022-08-18T13:09:41.574Z,50.02
2022-08-18T13:10:45.538Z,50.20
2022-08-18T13:11:27.659Z,50.09
2022-08-18T13:12:29.576Z,49.78
2022-08-18T13:13:32.362Z,49.68
2022-08-18T13:14:34.926Z,49.35
2022-08-18T13:15:38.441Z,48.78
2022-08-18T13:16:54.019Z,48.37
2022-08-18T13:17:44.358Z,48.92
2022-08-18T13:18:46.315Z,49.18
2022-08-18T13:19:48.195Z,49.25
2022-08-18T13:20:51.885Z,49.38
2022-08-18T13:21:53.757Z,49.49
2022-08-18T13:22:57.766Z,49.59
2022-08-18T13:23:59.889Z,49.68
2022-08-18T13:25:01.742Z,49.82
2022-08-18T13:26:06.004Z,49.81
2022-08-18T13:27:18.641Z,49.85
2022-08-18T13:28:11.724Z,49.86
2022-08-18T13:29:15.380Z,49.86
2022-08-18T13:30:29.909Z,49.96